Kezdőlap
METAR-TAF:

METAR-TAF

Repülőterek :

Brownwood, Texas, Amerikai Egyesült Államok

földrajzi szélesség: 31-48N, földrajzi hosszúság: 098-57W, magasság: 422 m

Jelenlegi meteorológiai megfigyelések

A jelentés 41 perccel ezelõtt készült, 07:15 UTC
Szélcsend
Hőmérséklet 23°C
Páratartalom 83%
Légköri nyomás 1015 hPa
Látótávolság: 9.7 km
Kevés felhő 4300 lábon

METAR: KBWD 240715Z AUTO 00000KT 6SM FEW043 23/20 A2998 RMK AO1

Idő: 02:56 (07:56 UTC)


TAF: hiányzik

Meteorológiai megfigyelések és előrejelzések több, mint 4000 repülőtéren (METAR és TAF jelentéseket).

A térképen piros és sárga pontok jelzik az elérhető meteorológiai állomásokat.

Mozgassa az egeret a pont fölött, hogy megjelenjen az állomás neve.

Azután kattintson az időjárási megfigyelések és előrejelzések megtekintéséhez.

A térkép megváltoztatása: kattintson a fekete keresztel jelölt zöld gombra ráközelítéshez, a vonallal jelölt zöld gombra távolításhoz, vagy a zöld nyilakra a szomszédos térképek eléréséhez.


METAR-TAF: